sensor_id;sensor_type;location;lat;lon;timestamp;pressure;altitude;pressure_sealevel;temperature;humidity
56272;BME280;42177;48.914;18.160;2023-02-23T00:03:12;985.3;;;7.4;89.9
56272;BME280;42177;48.914;18.160;2023-02-23T00:08:12;985.3;;;7.4;89.9
56272;BME280;42177;48.914;18.160;2023-02-23T00:13:12;985.4;;;7.2;89.8
56272;BME280;42177;48.914;18.160;2023-02-23T00:18:12;985.4;;;7.2;89.8
56272;BME280;42177;48.914;18.160;2023-02-23T00:23:13;985.4;;;7.1;90.1
56272;BME280;42177;48.914;18.160;2023-02-23T00:28:13;985.4;;;7.1;90.1
56272;BME280;42177;48.914;18.160;2023-02-23T00:33:12;985.3;;;6.7;92
56272;BME280;42177;48.914;18.160;2023-02-23T00:38:12;985.3;;;6.7;92
56272;BME280;42177;48.914;18.160;2023-02-23T00:43:12;985.3;;;6.8;90.5
56272;BME280;42177;48.914;18.160;2023-02-23T00:48:12;985.3;;;6.8;90.5
56272;BME280;42177;48.914;18.160;2023-02-23T00:53:12;985.3;;;6.9;90.7
56272;BME280;42177;48.914;18.160;2023-02-23T00:58:12;985.3;;;6.9;90.7
56272;BME280;42177;48.914;18.160;2023-02-23T01:03:12;985.3;;;7.1;90.3
56272;BME280;42177;48.914;18.160;2023-02-23T01:08:12;985.3;;;7.1;90.3
56272;BME280;42177;48.914;18.160;2023-02-23T01:13:12;985.1;;;6.9;90.7
56272;BME280;42177;48.914;18.160;2023-02-23T01:18:13;985.1;;;6.9;90.7
56272;BME280;42177;48.914;18.160;2023-02-23T01:23:12;985.1;;;6.9;90.4
56272;BME280;42177;48.914;18.160;2023-02-23T01:28:12;985.1;;;6.9;90.4
56272;BME280;42177;48.914;18.160;2023-02-23T01:33:12;985;;;6.9;90.8
56272;BME280;42177;48.914;18.160;2023-02-23T01:38:12;985;;;6.9;90.8
56272;BME280;42177;48.914;18.160;2023-02-23T01:43:13;985;;;7.3;89
56272;BME280;42177;48.914;18.160;2023-02-23T01:48:13;985;;;7.3;89
56272;BME280;42177;48.914;18.160;2023-02-23T01:53:12;985;;;7;90.4
56272;BME280;42177;48.914;18.160;2023-02-23T01:58:13;985;;;7;90.4
56272;BME280;42177;48.914;18.160;2023-02-23T02:03:13;984.9;;;7.1;89.8
56272;BME280;42177;48.914;18.160;2023-02-23T02:08:12;984.9;;;7.1;89.8
56272;BME280;42177;48.914;18.160;2023-02-23T02:13:15;984.9;;;7.4;88.9
56272;BME280;42177;48.914;18.160;2023-02-23T02:18:14;984.9;;;7.4;88.9
56272;BME280;42177;48.914;18.160;2023-02-23T02:23:20;984.9;;;7.5;88.9
56272;BME280;42177;48.914;18.160;2023-02-23T02:28:29;984.9;;;7.5;88.9
56272;BME280;42177;48.914;18.160;2023-02-23T02:33:21;985;;;7.7;88.1
56272;BME280;42177;48.914;18.160;2023-02-23T02:38:17;985;;;7.7;88.1
56272;BME280;42177;48.914;18.160;2023-02-23T02:43:13;985;;;7.4;89.7
56272;BME280;42177;48.914;18.160;2023-02-23T02:48:17;985;;;7.4;89.7
56272;BME280;42177;48.914;18.160;2023-02-23T02:53:13;985;;;7.7;88.5
56272;BME280;42177;48.914;18.160;2023-02-23T02:58:12;985;;;7.7;88.5
56272;BME280;42177;48.914;18.160;2023-02-23T03:03:26;985;;;7.6;89.1
56272;BME280;42177;48.914;18.160;2023-02-23T03:08:14;985;;;7.6;89.1
56272;BME280;42177;48.914;18.160;2023-02-23T03:13:15;985;;;7.5;89.3
56272;BME280;42177;48.914;18.160;2023-02-23T03:18:16;985;;;7.5;89.3
56272;BME280;42177;48.914;18.160;2023-02-23T03:23:15;985.1;;;7.7;88.7
56272;BME280;42177;48.914;18.160;2023-02-23T03:28:13;985.1;;;7.7;88.7
56272;BME280;42177;48.914;18.160;2023-02-23T03:33:13;985.1;;;7.4;90.2
56272;BME280;42177;48.914;18.160;2023-02-23T03:38:13;985.1;;;7.4;90.2
56272;BME280;42177;48.914;18.160;2023-02-23T03:43:13;985;;;7.6;88.4
56272;BME280;42177;48.914;18.160;2023-02-23T03:48:12;985;;;7.6;88.4
56272;BME280;42177;48.914;18.160;2023-02-23T03:53:12;985.1;;;7.7;87
56272;BME280;42177;48.914;18.160;2023-02-23T03:58:15;985.1;;;7.7;87
56272;BME280;42177;48.914;18.160;2023-02-23T04:03:13;985;;;7.5;86.4
56272;BME280;42177;48.914;18.160;2023-02-23T04:08:13;985;;;7.5;86.4
56272;BME280;42177;48.914;18.160;2023-02-23T04:13:13;985.1;;;7.6;86.4
56272;BME280;42177;48.914;18.160;2023-02-23T04:18:13;985.1;;;7.6;86.4
56272;BME280;42177;48.914;18.160;2023-02-23T04:23:12;985;;;7.4;86.9
56272;BME280;42177;48.914;18.160;2023-02-23T04:28:12;985;;;7.4;86.9
56272;BME280;42177;48.914;18.160;2023-02-23T04:33:12;985;;;7.2;87.7
56272;BME280;42177;48.914;18.160;2023-02-23T04:38:12;985;;;7.2;87.7
56272;BME280;42177;48.914;18.160;2023-02-23T04:43:12;985.1;;;7.2;87.2
56272;BME280;42177;48.914;18.160;2023-02-23T04:48:12;985.1;;;7.2;87.2
56272;BME280;42177;48.914;18.160;2023-02-23T04:53:12;985.1;;;7.3;86.8
56272;BME280;42177;48.914;18.160;2023-02-23T04:58:12;985.1;;;7.3;86.8
56272;BME280;42177;48.914;18.160;2023-02-23T05:03:12;985.1;;;7.3;86.2
56272;BME280;42177;48.914;18.160;2023-02-23T05:08:12;985.1;;;7.3;86.2
56272;BME280;42177;48.914;18.160;2023-02-23T05:13:12;985.1;;;7.4;86.4
56272;BME280;42177;48.914;18.160;2023-02-23T05:18:12;985.1;;;7.4;86.4
56272;BME280;42177;48.914;18.160;2023-02-23T05:23:12;985;;;7.3;85.9
56272;BME280;42177;48.914;18.160;2023-02-23T05:28:12;985;;;7.3;85.9
56272;BME280;42177;48.914;18.160;2023-02-23T05:33:12;985;;;7.5;85.8
56272;BME280;42177;48.914;18.160;2023-02-23T05:38:12;985;;;7.5;85.8
56272;BME280;42177;48.914;18.160;2023-02-23T05:43:12;985.1;;;7.2;85.7
56272;BME280;42177;48.914;18.160;2023-02-23T05:48:12;985.1;;;7.2;85.7
56272;BME280;42177;48.914;18.160;2023-02-23T05:53:12;985.2;;;7.5;84.6
56272;BME280;42177;48.914;18.160;2023-02-23T05:58:12;985.2;;;7.5;84.6
56272;BME280;42177;48.914;18.160;2023-02-23T06:03:12;985.2;;;7.7;83.9
56272;BME280;42177;48.914;18.160;2023-02-23T06:08:12;985.2;;;7.7;83.9
56272;BME280;42177;48.914;18.160;2023-02-23T06:13:13;985.3;;;7.7;83.9
56272;BME280;42177;48.914;18.160;2023-02-23T06:18:12;985.3;;;7.7;83.9
56272;BME280;42177;48.914;18.160;2023-02-23T06:23:12;985.4;;;7.6;84.3
56272;BME280;42177;48.914;18.160;2023-02-23T06:28:12;985.4;;;7.6;84.3
56272;BME280;42177;48.914;18.160;2023-02-23T06:33:12;985.6;;;7.5;83.9
56272;BME280;42177;48.914;18.160;2023-02-23T06:38:12;985.6;;;7.5;83.9
56272;BME280;42177;48.914;18.160;2023-02-23T06:43:12;985.6;;;7.7;83.4
56272;BME280;42177;48.914;18.160;2023-02-23T06:48:12;985.6;;;7.7;83.4
56272;BME280;42177;48.914;18.160;2023-02-23T06:53:12;985.6;;;8;82.8
56272;BME280;42177;48.914;18.160;2023-02-23T06:58:12;985.6;;;8;82.8
56272;BME280;42177;48.914;18.160;2023-02-23T07:03:12;985.7;;;7.8;82.4
56272;BME280;42177;48.914;18.160;2023-02-23T07:08:12;985.7;;;7.8;82.4
56272;BME280;42177;48.914;18.160;2023-02-23T07:13:12;985.7;;;7.6;83.6
56272;BME280;42177;48.914;18.160;2023-02-23T07:18:12;985.7;;;7.6;83.6
56272;BME280;42177;48.914;18.160;2023-02-23T07:23:12;985.7;;;7.9;82.6
56272;BME280;42177;48.914;18.160;2023-02-23T07:28:12;985.7;;;7.9;82.6
56272;BME280;42177;48.914;18.160;2023-02-23T07:33:12;985.8;;;8.1;81.1
56272;BME280;42177;48.914;18.160;2023-02-23T07:38:12;985.8;;;8.1;81.1
56272;BME280;42177;48.914;18.160;2023-02-23T07:43:12;985.8;;;7.8;81.3
56272;BME280;42177;48.914;18.160;2023-02-23T07:48:12;985.8;;;7.8;81.3
56272;BME280;42177;48.914;18.160;2023-02-23T07:53:12;985.8;;;8.2;80.5
56272;BME280;42177;48.914;18.160;2023-02-23T07:58:12;985.8;;;8.2;80.5
56272;BME280;42177;48.914;18.160;2023-02-23T08:03:12;985.8;;;8.2;80.1
56272;BME280;42177;48.914;18.160;2023-02-23T08:08:12;985.8;;;8.2;80.1
56272;BME280;42177;48.914;18.160;2023-02-23T08:13:12;985.7;;;8.2;79.6
56272;BME280;42177;48.914;18.160;2023-02-23T08:18:12;985.7;;;8.2;79.6
56272;BME280;42177;48.914;18.160;2023-02-23T08:23:12;985.7;;;8.3;78.9
56272;BME280;42177;48.914;18.160;2023-02-23T08:28:12;985.7;;;8.3;78.9
56272;BME280;42177;48.914;18.160;2023-02-23T08:33:12;985.7;;;8.3;78.3
56272;BME280;42177;48.914;18.160;2023-02-23T08:38:12;985.7;;;8.3;78.3
56272;BME280;42177;48.914;18.160;2023-02-23T08:43:12;985.7;;;8.2;79.2
56272;BME280;42177;48.914;18.160;2023-02-23T08:48:12;985.7;;;8.2;79.2
56272;BME280;42177;48.914;18.160;2023-02-23T08:53:12;985.7;;;8.3;77.9
56272;BME280;42177;48.914;18.160;2023-02-23T08:58:12;985.7;;;8.3;77.9
56272;BME280;42177;48.914;18.160;2023-02-23T09:03:12;985.7;;;8.7;76.3
56272;BME280;42177;48.914;18.160;2023-02-23T09:08:12;985.7;;;8.7;76.3
56272;BME280;42177;48.914;18.160;2023-02-23T09:13:12;985.7;;;9.2;74.3
56272;BME280;42177;48.914;18.160;2023-02-23T09:18:12;985.7;;;9.2;74.3
56272;BME280;42177;48.914;18.160;2023-02-23T09:23:12;985.6;;;9.4;73.9
56272;BME280;42177;48.914;18.160;2023-02-23T09:28:13;985.6;;;9.4;73.9
56272;BME280;42177;48.914;18.160;2023-02-23T09:33:13;985.7;;;10.1;70.4
56272;BME280;42177;48.914;18.160;2023-02-23T09:38:12;985.7;;;10.1;70.4
56272;BME280;42177;48.914;18.160;2023-02-23T09:43:13;985.7;;;10.3;69
56272;BME280;42177;48.914;18.160;2023-02-23T09:48:13;985.7;;;10.3;69
56272;BME280;42177;48.914;18.160;2023-02-23T09:53:16;985.6;;;10.7;67.3
56272;BME280;42177;48.914;18.160;2023-02-23T09:58:16;985.6;;;10.7;67.3
56272;BME280;42177;48.914;18.160;2023-02-23T10:03:16;985.6;;;10.9;66.2
56272;BME280;42177;48.914;18.160;2023-02-23T10:08:18;985.6;;;10.9;66.2
56272;BME280;42177;48.914;18.160;2023-02-23T10:13:14;985.6;;;11.2;64.9
56272;BME280;42177;48.914;18.160;2023-02-23T10:18:17;985.6;;;11.2;64.9
56272;BME280;42177;48.914;18.160;2023-02-23T10:23:14;985.7;;;11.2;64.7
56272;BME280;42177;48.914;18.160;2023-02-23T10:28:13;985.7;;;11.2;64.7
56272;BME280;42177;48.914;18.160;2023-02-23T10:33:13;985.6;;;11.6;63.5
56272;BME280;42177;48.914;18.160;2023-02-23T10:38:13;985.6;;;11.6;63.5
56272;BME280;42177;48.914;18.160;2023-02-23T10:43:12;985.5;;;11.8;63.1
56272;BME280;42177;48.914;18.160;2023-02-23T10:48:15;985.5;;;11.8;63.1
56272;BME280;42177;48.914;18.160;2023-02-23T10:53:13;985.2;;;12.3;61.8
56272;BME280;42177;48.914;18.160;2023-02-23T10:58:13;985.2;;;12.3;61.8
56272;BME280;42177;48.914;18.160;2023-02-23T11:03:16;985.2;;;12.8;59.3
56272;BME280;42177;48.914;18.160;2023-02-23T11:08:17;985.2;;;12.8;59.3
56272;BME280;42177;48.914;18.160;2023-02-23T11:13:20;985.2;;;12.2;61.4
56272;BME280;42177;48.914;18.160;2023-02-23T11:18:17;985.2;;;12.2;61.4
56272;BME280;42177;48.914;18.160;2023-02-23T11:23:14;985.1;;;12.3;62
56272;BME280;42177;48.914;18.160;2023-02-23T11:28:14;985.1;;;12.3;62
56272;BME280;42177;48.914;18.160;2023-02-23T11:33:14;985.1;;;12.2;62.6
56272;BME280;42177;48.914;18.160;2023-02-23T11:38:14;985.1;;;12.2;62.6
56272;BME280;42177;48.914;18.160;2023-02-23T11:43:13;985;;;11.8;63.4
56272;BME280;42177;48.914;18.160;2023-02-23T11:48:18;985;;;11.8;63.4
56272;BME280;42177;48.914;18.160;2023-02-23T11:53:13;984.9;;;11.6;64.3
56272;BME280;42177;48.914;18.160;2023-02-23T11:58:19;984.9;;;11.6;64.3
56272;BME280;42177;48.914;18.160;2023-02-23T12:03:16;984.8;;;11.5;64.9
56272;BME280;42177;48.914;18.160;2023-02-23T12:08:13;984.8;;;11.5;64.9
56272;BME280;42177;48.914;18.160;2023-02-23T12:13:16;984.8;;;11.7;65.1
56272;BME280;42177;48.914;18.160;2023-02-23T12:18:15;984.8;;;11.7;65.1
56272;BME280;42177;48.914;18.160;2023-02-23T12:23:14;984.6;;;11.9;64.1
56272;BME280;42177;48.914;18.160;2023-02-23T12:28:15;984.6;;;11.9;64.1
56272;BME280;42177;48.914;18.160;2023-02-23T12:33:14;984.6;;;11.6;65.6
56272;BME280;42177;48.914;18.160;2023-02-23T12:38:14;984.6;;;11.6;65.6
56272;BME280;42177;48.914;18.160;2023-02-23T12:43:13;984.7;;;11.7;64.7
56272;BME280;42177;48.914;18.160;2023-02-23T12:48:14;984.7;;;11.7;64.7
56272;BME280;42177;48.914;18.160;2023-02-23T12:53:16;984.6;;;11.4;65.2
56272;BME280;42177;48.914;18.160;2023-02-23T12:58:13;984.6;;;11.4;65.2
56272;BME280;42177;48.914;18.160;2023-02-23T13:03:15;984.6;;;11.3;65.4
56272;BME280;42177;48.914;18.160;2023-02-23T13:08:16;984.6;;;11.3;65.4
56272;BME280;42177;48.914;18.160;2023-02-23T13:13:16;984.4;;;11.3;66.5
56272;BME280;42177;48.914;18.160;2023-02-23T13:18:13;984.4;;;11.3;66.5
56272;BME280;42177;48.914;18.160;2023-02-23T13:23:15;984.4;;;11.4;65.8
56272;BME280;42177;48.914;18.160;2023-02-23T13:28:14;984.4;;;11.4;65.8
56272;BME280;42177;48.914;18.160;2023-02-23T13:33:14;984.3;;;11.5;65.1
56272;BME280;42177;48.914;18.160;2023-02-23T13:38:13;984.3;;;11.5;65.1
56272;BME280;42177;48.914;18.160;2023-02-23T13:43:14;984.3;;;11.5;65.8
56272;BME280;42177;48.914;18.160;2023-02-23T13:48:15;984.3;;;11.5;65.8
56272;BME280;42177;48.914;18.160;2023-02-23T13:53:26;984.3;;;11.6;64.7
56272;BME280;42177;48.914;18.160;2023-02-23T13:58:13;984.3;;;11.6;64.7
56272;BME280;42177;48.914;18.160;2023-02-23T14:03:19;984.2;;;11.5;63.7
56272;BME280;42177;48.914;18.160;2023-02-23T14:08:19;984.2;;;11.5;63.7
56272;BME280;42177;48.914;18.160;2023-02-23T14:13:29;984.2;;;11.5;63.3
56272;BME280;42177;48.914;18.160;2023-02-23T14:18:29;984.2;;;11.5;63.3
56272;BME280;42177;48.914;18.160;2023-02-23T14:23:14;984.2;;;12.7;67.4
56272;BME280;42177;48.914;18.160;2023-02-23T14:28:32;984.2;;;12.7;67.4
56272;BME280;42177;48.914;18.160;2023-02-23T14:33:32;984;;;11.4;63
56272;BME280;42177;48.914;18.160;2023-02-23T14:38:21;984;;;11.4;63
56272;BME280;42177;48.914;18.160;2023-02-23T14:43:45;984;;;11.4;62.7
56272;BME280;42177;48.914;18.160;2023-02-23T14:53:15;984.1;;;11.2;63.7
56272;BME280;42177;48.914;18.160;2023-02-23T14:58:20;984.1;;;11.2;63.7
56272;BME280;42177;48.914;18.160;2023-02-23T15:03:12;984;;;11.1;64.8
56272;BME280;42177;48.914;18.160;2023-02-23T15:08:13;984;;;11.1;64.8
56272;BME280;42177;48.914;18.160;2023-02-23T15:13:15;984;;;11;64.8
56272;BME280;42177;48.914;18.160;2023-02-23T15:18:13;984;;;11;64.8
56272;BME280;42177;48.914;18.160;2023-02-23T15:23:12;983.9;;;11;64.9
56272;BME280;42177;48.914;18.160;2023-02-23T15:28:19;983.9;;;11;64.9
56272;BME280;42177;48.914;18.160;2023-02-23T15:33:13;983.9;;;11;65.7
56272;BME280;42177;48.914;18.160;2023-02-23T15:38:14;983.9;;;11;65.7
56272;BME280;42177;48.914;18.160;2023-02-23T15:43:12;983.9;;;10.9;65.7
56272;BME280;42177;48.914;18.160;2023-02-23T15:48:13;983.9;;;10.9;65.7
56272;BME280;42177;48.914;18.160;2023-02-23T15:53:16;983.9;;;10.8;66.3
56272;BME280;42177;48.914;18.160;2023-02-23T15:58:16;983.9;;;10.8;66.3
56272;BME280;42177;48.914;18.160;2023-02-23T16:03:21;983.8;;;10.7;66.7
56272;BME280;42177;48.914;18.160;2023-02-23T16:08:17;983.8;;;10.7;66.7
56272;BME280;42177;48.914;18.160;2023-02-23T16:13:13;983.7;;;10.6;67.1
56272;BME280;42177;48.914;18.160;2023-02-23T16:18:13;983.7;;;10.6;67.1
56272;BME280;42177;48.914;18.160;2023-02-23T16:23:14;983.8;;;10.6;67.3
56272;BME280;42177;48.914;18.160;2023-02-23T16:28:13;983.8;;;10.6;67.3
56272;BME280;42177;48.914;18.160;2023-02-23T16:33:14;983.8;;;10.5;67.8
56272;BME280;42177;48.914;18.160;2023-02-23T16:38:13;983.8;;;10.5;67.8
56272;BME280;42177;48.914;18.160;2023-02-23T16:43:12;983.7;;;10.5;68.4
56272;BME280;42177;48.914;18.160;2023-02-23T16:48:13;983.7;;;10.5;68.4
56272;BME280;42177;48.914;18.160;2023-02-23T16:53:12;983.7;;;10.5;68.6
56272;BME280;42177;48.914;18.160;2023-02-23T16:58:14;983.7;;;10.5;68.6
56272;BME280;42177;48.914;18.160;2023-02-23T17:03:14;983.8;;;10.6;68.1
56272;BME280;42177;48.914;18.160;2023-02-23T17:08:13;983.8;;;10.6;68.1
56272;BME280;42177;48.914;18.160;2023-02-23T17:13:14;983.6;;;10.5;68.1
56272;BME280;42177;48.914;18.160;2023-02-23T17:18:12;983.6;;;10.5;68.1
56272;BME280;42177;48.914;18.160;2023-02-23T17:23:12;983.8;;;10.4;68.3
56272;BME280;42177;48.914;18.160;2023-02-23T17:28:12;983.8;;;10.4;68.3
56272;BME280;42177;48.914;18.160;2023-02-23T17:33:12;983.8;;;10.2;68.5
56272;BME280;42177;48.914;18.160;2023-02-23T17:38:12;983.8;;;10.2;68.5
56272;BME280;42177;48.914;18.160;2023-02-23T17:43:12;983.6;;;10.3;68.3
56272;BME280;42177;48.914;18.160;2023-02-23T17:48:12;983.6;;;10.3;68.3
56272;BME280;42177;48.914;18.160;2023-02-23T17:53:12;983.7;;;10.2;68.8
56272;BME280;42177;48.914;18.160;2023-02-23T17:58:12;983.7;;;10.2;68.8
56272;BME280;42177;48.914;18.160;2023-02-23T18:03:12;983.6;;;10.2;68.4
56272;BME280;42177;48.914;18.160;2023-02-23T18:08:12;983.6;;;10.2;68.4
56272;BME280;42177;48.914;18.160;2023-02-23T18:13:12;983.7;;;10.1;69.1
56272;BME280;42177;48.914;18.160;2023-02-23T18:18:12;983.7;;;10.1;69.1
56272;BME280;42177;48.914;18.160;2023-02-23T18:23:12;983.6;;;10.2;68.5
56272;BME280;42177;48.914;18.160;2023-02-23T18:28:12;983.6;;;10.2;68.5
56272;BME280;42177;48.914;18.160;2023-02-23T18:33:12;983.5;;;10.2;68.1
56272;BME280;42177;48.914;18.160;2023-02-23T18:38:12;983.5;;;10.2;68.1
56272;BME280;42177;48.914;18.160;2023-02-23T18:43:12;983.6;;;9.9;68.6
56272;BME280;42177;48.914;18.160;2023-02-23T18:48:12;983.6;;;9.9;68.6
56272;BME280;42177;48.914;18.160;2023-02-23T18:53:12;983.5;;;10;68.6
56272;BME280;42177;48.914;18.160;2023-02-23T18:58:12;983.5;;;10;68.6
56272;BME280;42177;48.914;18.160;2023-02-23T19:03:12;983.4;;;9.9;68.2
56272;BME280;42177;48.914;18.160;2023-02-23T19:08:12;983.4;;;9.9;68.2
56272;BME280;42177;48.914;18.160;2023-02-23T19:13:12;983.5;;;9.9;68.4
56272;BME280;42177;48.914;18.160;2023-02-23T19:18:12;983.5;;;9.9;68.4
56272;BME280;42177;48.914;18.160;2023-02-23T19:23:12;983.5;;;10.2;67.6
56272;BME280;42177;48.914;18.160;2023-02-23T19:28:12;983.5;;;10.2;67.6
56272;BME280;42177;48.914;18.160;2023-02-23T19:33:13;983.4;;;10;68.4
56272;BME280;42177;48.914;18.160;2023-02-23T19:38:12;983.4;;;10;68.4
56272;BME280;42177;48.914;18.160;2023-02-23T19:43:12;983.5;;;9.9;68.8
56272;BME280;42177;48.914;18.160;2023-02-23T19:48:12;983.5;;;9.9;68.8
56272;BME280;42177;48.914;18.160;2023-02-23T19:53:12;983.4;;;9.7;69.5
56272;BME280;42177;48.914;18.160;2023-02-23T19:58:12;983.4;;;9.7;69.5
56272;BME280;42177;48.914;18.160;2023-02-23T20:03:12;983.4;;;9.8;69.3
56272;BME280;42177;48.914;18.160;2023-02-23T20:08:12;983.4;;;9.8;69.3
56272;BME280;42177;48.914;18.160;2023-02-23T20:13:12;983.3;;;10;68.8
56272;BME280;42177;48.914;18.160;2023-02-23T20:18:12;983.3;;;10;68.8
56272;BME280;42177;48.914;18.160;2023-02-23T20:23:12;983.3;;;9.8;69.5
56272;BME280;42177;48.914;18.160;2023-02-23T20:28:12;983.3;;;9.8;69.5
56272;BME280;42177;48.914;18.160;2023-02-23T20:33:12;983.2;;;9.9;69.3
56272;BME280;42177;48.914;18.160;2023-02-23T20:38:12;983.2;;;9.9;69.3
56272;BME280;42177;48.914;18.160;2023-02-23T20:43:12;983.2;;;9.8;69.3
56272;BME280;42177;48.914;18.160;2023-02-23T20:48:12;983.2;;;9.8;69.3
56272;BME280;42177;48.914;18.160;2023-02-23T20:53:12;983.1;;;9.8;69
56272;BME280;42177;48.914;18.160;2023-02-23T20:58:12;983.1;;;9.8;69
56272;BME280;42177;48.914;18.160;2023-02-23T21:03:12;983;;;10;68.2
56272;BME280;42177;48.914;18.160;2023-02-23T21:08:13;983;;;10;68.2
56272;BME280;42177;48.914;18.160;2023-02-23T21:13:12;983;;;9.9;68.6
56272;BME280;42177;48.914;18.160;2023-02-23T21:18:12;983;;;9.9;68.6
56272;BME280;42177;48.914;18.160;2023-02-23T21:23:12;982.8;;;9.9;68.9
56272;BME280;42177;48.914;18.160;2023-02-23T21:28:12;982.8;;;9.9;68.9
56272;BME280;42177;48.914;18.160;2023-02-23T21:33:12;982.7;;;9.8;69.1
56272;BME280;42177;48.914;18.160;2023-02-23T21:38:12;982.7;;;9.8;69.1
56272;BME280;42177;48.914;18.160;2023-02-23T21:43:12;982.6;;;9.8;69.1
56272;BME280;42177;48.914;18.160;2023-02-23T21:48:12;982.6;;;9.8;69.1
56272;BME280;42177;48.914;18.160;2023-02-23T21:53:12;982.5;;;9.8;69
56272;BME280;42177;48.914;18.160;2023-02-23T21:58:12;982.5;;;9.8;69
56272;BME280;42177;48.914;18.160;2023-02-23T22:03:12;982.4;;;9.9;68.5
56272;BME280;42177;48.914;18.160;2023-02-23T22:08:12;982.4;;;9.9;68.5
56272;BME280;42177;48.914;18.160;2023-02-23T22:13:12;982.4;;;9.8;68.6
56272;BME280;42177;48.914;18.160;2023-02-23T22:18:12;982.4;;;9.8;68.6
56272;BME280;42177;48.914;18.160;2023-02-23T22:23:12;982.4;;;9.8;69.2
56272;BME280;42177;48.914;18.160;2023-02-23T22:28:12;982.4;;;9.8;69.2
56272;BME280;42177;48.914;18.160;2023-02-23T22:33:12;982.3;;;9.6;70.1
56272;BME280;42177;48.914;18.160;2023-02-23T22:38:12;982.3;;;9.6;70.1
56272;BME280;42177;48.914;18.160;2023-02-23T22:43:12;982.2;;;9.6;70.5
56272;BME280;42177;48.914;18.160;2023-02-23T22:48:12;982.2;;;9.6;70.5
56272;BME280;42177;48.914;18.160;2023-02-23T22:53:12;981.9;;;9.7;70.8
56272;BME280;42177;48.914;18.160;2023-02-23T22:58:13;981.9;;;9.7;70.8
56272;BME280;42177;48.914;18.160;2023-02-23T23:03:12;981.8;;;9.7;71.2
56272;BME280;42177;48.914;18.160;2023-02-23T23:08:12;981.8;;;9.7;71.2
56272;BME280;42177;48.914;18.160;2023-02-23T23:13:12;981.8;;;9.8;71.2
56272;BME280;42177;48.914;18.160;2023-02-23T23:18:12;981.8;;;9.8;71.2
56272;BME280;42177;48.914;18.160;2023-02-23T23:23:12;981.9;;;9.7;71.8
56272;BME280;42177;48.914;18.160;2023-02-23T23:28:12;981.9;;;9.7;71.8
56272;BME280;42177;48.914;18.160;2023-02-23T23:33:12;981.8;;;9.7;72.1
56272;BME280;42177;48.914;18.160;2023-02-23T23:38:12;981.8;;;9.7;72.1
56272;BME280;42177;48.914;18.160;2023-02-23T23:43:12;981.6;;;9.5;73.4
56272;BME280;42177;48.914;18.160;2023-02-23T23:48:12;981.6;;;9.5;73.4
56272;BME280;42177;48.914;18.160;2023-02-23T23:53:12;981.7;;;9.7;74
56272;BME280;42177;48.914;18.160;2023-02-23T23:58:12;981.7;;;9.7;74
